FredonyerEastRWIS Atmospheric Data: 05/16/2018 Summary  Detailed Graphs  Station List

  Temperature     Wind Precipitation Visibility
Timestamp Air Wet
Bulb
Dew-
point
24-hr
Max
24-hr
Min
Relative
Humidity
Atmospheric
Pressure
Avg
Speed
Avg
Dir
Spot
Speed
Spot
Dir
Max
Speed
Max
Dir
  Rate Situation Start End 1 hr 3 hr 6 hr 12 hr 24 hr   Situation
Date Time °F °F °F °F °F % in Hg mph ° mph ° mph ° Y/N in/hr text Date Time Date Time in in in in in mi text
05/16/2018 12:08 AM 42.26 37.94 32.00 65.48 38.48 66.0 Not Reported 0.45 N 0.67 N 1.57 NW No x No Precipitation 05/15/2018 11:25 AM 05/15/2018 11:32 AM x x x x x Not Reported Not Reported
05/16/2018 12:23 AM 41.72 37.76 31.64 65.48 38.48 66.0 Not Reported 0.00 N 0.00 NW 0.00 x No x No Precipitation 05/15/2018 11:25 AM 05/15/2018 11:32 AM x x x x x Not Reported Not Reported
05/16/2018 12:38 AM 41.54 37.58 31.64 65.48 38.48 67.0 Not Reported 1.57 NW 1.79 N 2.01 N No x No Precipitation 05/15/2018 11:25 AM 05/15/2018 11:32 AM x x x x x Not Reported Not Reported
05/16/2018 12:54 AM 41.72 37.76 31.82 65.48 38.48 67.0 Not Reported 0.45 N 0.00 NW 1.79 NW No x No Precipitation 05/15/2018 11:25 AM 05/15/2018 11:32 AM x x x x x Not Reported Not Reported
05/16/2018 01:08 AM 41.90 37.94 32.18 65.48 38.48 68.0 Not Reported 0.45 N 0.22 N 1.79 SW No x No Precipitation 05/15/2018 11:25 AM 05/15/2018 11:32 AM x x x x x Not Reported Not Reported
05/16/2018 01:23 AM 42.08 38.12 32.54 65.48 38.48 68.0 Not Reported 0.67 NW 1.12 W 1.79 W No x No Precipitation 05/15/2018 11:25 AM 05/15/2018 11:32 AM x x x x x Not Reported Not Reported
05/16/2018 01:38 AM 41.90 38.12 32.36 65.48 38.48 68.0 Not Reported 0.67 NW 1.79 W 2.24 NW No x No Precipitation 05/15/2018 11:25 AM 05/15/2018 11:32 AM x x x x x Not Reported Not Reported
05/16/2018 01:53 AM 41.72 37.76 32.18 65.48 38.48 68.0 Not Reported 1.12 NW 1.12 W 1.57 NW No x No Precipitation 05/15/2018 11:25 AM 05/15/2018 11:32 AM x x x x x Not Reported Not Reported
05/16/2018 02:08 AM 41.54 37.76 32.18 65.48 38.48 68.0 Not Reported 0.45 NW 0.00 NW 1.79 NW No x No Precipitation 05/15/2018 11:25 AM 05/15/2018 11:32 AM x x x x x Not Reported Not Reported
05/16/2018 02:23 AM 41.18 37.40 31.64 65.48 38.48 68.0 Not Reported 0.22 NW 1.12 SW 1.12 W No x No Precipitation 05/15/2018 11:25 AM 05/15/2018 11:32 AM x x x x x Not Reported Not Reported
05/16/2018 02:38 AM 40.64 36.86 31.28 65.48 38.48 68.0 Not Reported 1.57 W 1.34 W 2.01 NW No x No Precipitation 05/15/2018 11:25 AM 05/15/2018 11:32 AM x x x x x Not Reported Not Reported
05/16/2018 02:54 AM 41.54 37.76 32.00 65.48 38.48 68.0 Not Reported 2.01 S 2.01 S 5.14 S No x No Precipitation 05/15/2018 11:25 AM 05/15/2018 11:32 AM x x x x x Not Reported Not Reported
05/16/2018 03:08 AM 42.44 38.48 33.08 65.48 38.48 69.0 Not Reported 2.01 W 1.12 SW 4.47 S No x No Precipitation 05/15/2018 11:25 AM 05/15/2018 11:32 AM x x x x x Not Reported Not Reported
05/16/2018 03:23 AM 41.18 37.40 31.82 65.48 38.48 69.0 Not Reported 1.12 N 0.00 N 2.68 NW No x No Precipitation 05/15/2018 11:25 AM 05/15/2018 11:32 AM x x x x x Not Reported Not Reported
05/16/2018 03:38 AM 40.64 36.86 31.46 65.48 38.48 69.0 Not Reported 0.89 N 0.89 N 2.68 NW No x No Precipitation 05/15/2018 11:25 AM 05/15/2018 11:32 AM x x x x x Not Reported Not Reported
05/16/2018 03:53 AM 39.92 36.50 30.74 65.48 38.48 69.0 Not Reported 0.00 E 0.00 NE 2.24 NW No x No Precipitation 05/15/2018 11:25 AM 05/15/2018 11:32 AM x x x x x Not Reported Not Reported
05/16/2018 04:08 AM 39.56 35.78 30.38 65.48 38.48 69.0 Not Reported 0.45 W 0.00 SW 2.01 N No x No Precipitation 05/15/2018 11:25 AM 05/15/2018 11:32 AM x x x x x Not Reported Not Reported
05/16/2018 04:23 AM 38.84 35.42 29.66 65.48 38.48 69.0 Not Reported 0.89 N 0.00 N 2.24 W No x No Precipitation 05/15/2018 11:25 AM 05/15/2018 11:32 AM x x x x x Not Reported Not Reported
05/16/2018 04:38 AM 38.30 34.88 29.30 65.48 38.30 69.0 Not Reported 0.00 NW 0.45 NW 1.12 NW No x No Precipitation 05/15/2018 11:25 AM 05/15/2018 11:32 AM x x x x x Not Reported Not Reported
05/16/2018 04:54 AM 37.76 34.34 28.58 65.48 37.58 69.0 Not Reported 0.00 NW 0.00 NW 0.00 x No x No Precipitation 05/15/2018 11:25 AM 05/15/2018 11:32 AM x x x x x Not Reported Not Reported
05/16/2018 05:09 AM 37.40 33.98 28.40 65.48 37.40 69.0 Not Reported 1.12 NW 1.57 NW 1.79 NW No x No Precipitation 05/15/2018 11:25 AM 05/15/2018 11:32 AM x x x x x Not Reported Not Reported
05/16/2018 05:23 AM 37.04 33.80 28.22 65.48 37.04 69.0 Not Reported 0.00 NW 0.00 NW 0.67 NW No x No Precipitation 05/15/2018 11:25 AM 05/15/2018 11:32 AM x x x x x Not Reported Not Reported
05/16/2018 05:38 AM 36.68 33.44 27.86 65.48 36.68 69.0 Not Reported 0.00 S 0.00 S 0.67 S No x No Precipitation 05/15/2018 11:25 AM 05/15/2018 11:32 AM x x x x x Not Reported Not Reported
05/16/2018 05:53 AM 36.50 33.26 27.50 65.48 36.50 69.0 Not Reported 0.67 NW 0.00 NW 2.01 NW No x No Precipitation 05/15/2018 11:25 AM 05/15/2018 11:32 AM x x x x x Not Reported Not Reported
05/16/2018 06:08 AM 36.68 33.44 27.68 65.48 36.50 69.0 Not Reported 0.00 NW 0.00 NW 1.34 NW No x No Precipitation 05/15/2018 11:25 AM 05/15/2018 11:32 AM x x x x x Not Reported Not Reported
05/16/2018 06:23 AM 37.04 33.80 28.22 65.48 36.50 69.0 Not Reported 0.67 NW 0.00 NW 1.57 NW No x No Precipitation 05/15/2018 11:25 AM 05/15/2018 11:32 AM x x x x x Not Reported Not Reported
05/16/2018 06:38 AM 38.12 34.70 29.12 65.48 36.50 69.0 Not Reported 0.45 NE 1.12 NE 1.12 NE No x No Precipitation 05/15/2018 11:25 AM 05/15/2018 11:32 AM x x x x x Not Reported Not Reported
05/16/2018 06:54 AM 39.38 35.96 30.38 65.48 36.50 69.0 Not Reported 0.00 SE 0.45 S 1.57 W No x No Precipitation 05/15/2018 11:25 AM 05/15/2018 11:32 AM x x x x x Not Reported Not Reported
05/16/2018 07:09 AM 41.18 37.58 32.18 65.48 36.50 69.0 Not Reported 0.00 E 0.00 E 2.24 S No x No Precipitation 05/15/2018 11:25 AM 05/15/2018 11:32 AM x x x x x Not Reported Not Reported
05/16/2018 07:24 AM 42.62 38.84 33.44 65.48 36.50 69.0 Not Reported 0.00 E 0.00 E 0.45 NE No x No Precipitation 05/15/2018 11:25 AM 05/15/2018 11:32 AM x x x x x Not Reported Not Reported
05/16/2018 07:38 AM 44.60 40.64 35.42 65.48 36.50 69.0 Not Reported 0.00 E 0.00 E 0.00 x No x No Precipitation 05/15/2018 11:25 AM 05/15/2018 11:32 AM x x x x x Not Reported Not Reported
05/16/2018 07:53 AM 46.40 42.26 37.04 65.48 36.50 69.0 Not Reported 0.67 SE 0.67 SE 2.46 SE No x No Precipitation 05/15/2018 11:25 AM 05/15/2018 11:32 AM x x x x x Not Reported Not Reported
05/16/2018 08:08 AM 48.02 43.70 38.48 65.48 36.50 69.0 Not Reported 0.45 E 0.00 E 1.12 SE No x No Precipitation 05/15/2018 11:25 AM 05/15/2018 11:32 AM x x x x x Not Reported Not Reported
05/16/2018 08:23 AM 50.54 44.42 37.04 65.48 36.50 59.0 Not Reported 0.00 NE 0.00 NE 2.24 SE No x No Precipitation 05/15/2018 11:25 AM 05/15/2018 11:32 AM x x x x x Not Reported Not Reported
05/16/2018 08:38 AM 53.42 44.42 30.56 65.48 36.50 41.0 Not Reported 2.01 S 2.46 SE 4.03 S No x No Precipitation 05/15/2018 11:25 AM 05/15/2018 11:32 AM x x x x x Not Reported Not Reported
05/16/2018 08:54 AM 55.76 45.68 28.58 65.48 36.50 34.0 Not Reported 2.91 S 4.03 S 5.82 SE No x No Precipitation 05/15/2018 11:25 AM 05/15/2018 11:32 AM x x x x x Not Reported Not Reported
05/16/2018 09:08 AM 57.56 46.58 26.78 65.48 36.50 30.0 Not Reported 2.24 SE 4.47 S 5.14 S No x No Precipitation 05/15/2018 11:25 AM 05/15/2018 11:32 AM x x x x x Not Reported Not Reported
05/16/2018 09:23 AM 57.74 46.58 26.24 65.48 36.50 29.0 Not Reported 2.68 S 5.59 SW 10.29 SE No x No Precipitation 05/15/2018 11:25 AM 05/15/2018 11:32 AM x x x x x Not Reported Not Reported
05/16/2018 09:38 AM 55.76 45.50 28.04 65.48 36.50 34.0 Not Reported 2.01 S 3.80 S 6.26 S No x No Precipitation 05/15/2018 11:25 AM 05/15/2018 11:32 AM x x x x x Not Reported Not Reported
05/16/2018 09:53 AM 57.38 46.58 28.22 65.48 36.50 32.0 Not Reported 1.79 SE 0.22 NE 5.59 SE No x No Precipitation 05/15/2018 11:25 AM 05/15/2018 11:32 AM x x x x x Not Reported Not Reported
05/16/2018 10:08 AM 60.26 48.02 24.62 65.30 36.50 25.0 Not Reported 2.46 S 0.00 NE 7.83 S No x No Precipitation 05/15/2018 11:25 AM 05/15/2018 11:32 AM x x x x x Not Reported Not Reported
05/16/2018 10:23 AM 60.98 48.74 23.90 65.30 36.50 23.0 Not Reported 3.80 SE 0.00 NW 10.74 SE No x No Precipitation 05/15/2018 11:25 AM 05/15/2018 11:32 AM x x x x x Not Reported Not Reported
05/16/2018 10:38 AM 60.80 48.38 22.28 65.30 36.50 22.0 Not Reported 3.80 SE 10.51 S 10.74 SW No x No Precipitation 05/15/2018 11:25 AM 05/15/2018 11:32 AM x x x x x Not Reported Not Reported
05/16/2018 10:54 AM 59.54 47.66 21.74 65.30 36.50 22.0 Not Reported 4.70 S 2.46 S 10.07 W No x No Precipitation 05/15/2018 11:25 AM 05/15/2018 11:32 AM x x x x x Not Reported Not Reported
05/16/2018 11:08 AM 61.70 49.10 23.72 65.30 36.50 23.0 Not Reported 4.03 W 9.62 SE 9.62 S No x No Precipitation 05/15/2018 11:25 AM 05/15/2018 11:32 AM x x x x x Not Reported Not Reported
05/16/2018 11:23 AM 59.72 47.66 23.00 65.30 36.50 24.0 Not Reported 2.46 W 1.34 S 9.17 W No x No Precipitation 05/15/2018 11:25 AM 05/15/2018 11:32 AM x x x x x Not Reported Not Reported
05/16/2018 11:38 AM 59.72 47.66 23.18 65.30 36.50 24.0 Not Reported 4.70 SW 6.49 S 12.08 SW No x No Precipitation 05/15/2018 11:25 AM 05/15/2018 11:32 AM x x x x x Not Reported Not Reported
05/16/2018 11:53 AM 60.08 47.84 21.92 65.30 36.50 22.0 Not Reported 4.25 SW 3.36 W 11.86 SW No x No Precipitation 05/15/2018 11:25 AM 05/15/2018 11:32 AM x x x x x Not Reported Not Reported
05/16/2018 12:08 PM 59.90 47.66 21.92 64.94 36.50 22.0 Not Reported 4.25 S 4.70 W 9.40 W No x No Precipitation 05/15/2018 11:25 AM 05/15/2018 11:32 AM x x x x x Not Reported Not Reported
05/16/2018 12:23 PM 60.08 47.84 21.56 64.94 36.50 22.0 Not Reported 6.04 S 3.13 S 11.63 S No x No Precipitation 05/15/2018 11:25 AM 05/15/2018 11:32 AM x x x x x Not Reported Not Reported
05/16/2018 12:38 PM 60.62 48.38 21.74 64.94 36.50 22.0 Not Reported 6.49 S 10.07 SW 10.29 SW No x No Precipitation 05/15/2018 11:25 AM 05/15/2018 11:32 AM x x x x x Not Reported Not Reported
05/16/2018 12:54 PM 62.60 49.64 20.66 64.94 36.50 19.0 Not Reported 6.26 SW 8.72 SW 11.41 SW No x No Precipitation 05/15/2018 11:25 AM 05/15/2018 11:32 AM x x x x x Not Reported Not Reported
05/16/2018 01:08 PM 63.50 50.36 19.04 64.40 36.50 17.0 Not Reported 6.93 SW 5.82 SW 11.41 SW No x No Precipitation 05/15/2018 11:25 AM 05/15/2018 11:32 AM x x x x x Not Reported Not Reported
05/16/2018 01:23 PM 64.40 51.08 19.40 64.58 36.50 17.0 Not Reported 8.28 S 8.28 S 17.45 S No x No Precipitation 05/15/2018 11:25 AM 05/15/2018 11:32 AM x x x x x Not Reported Not Reported
05/16/2018 01:38 PM 63.50 50.18 22.46 65.12 36.50 20.0 Not Reported 7.16 S 3.80 SE 18.34 S No x No Precipitation 05/15/2018 11:25 AM 05/15/2018 11:32 AM x x x x x Not Reported Not Reported
05/16/2018 01:53 PM 64.04 50.72 26.60 65.12 36.50 23.0 Not Reported 6.26 S 8.28 SE 16.55 S No x No Precipitation 05/15/2018 11:25 AM 05/15/2018 11:32 AM x x x x x Not Reported Not Reported
05/16/2018 02:08 PM 58.10 46.58 24.62 65.12 36.50 27.0 Not Reported 7.16 SW 8.05 NW 19.46 S No x No Precipitation 05/15/2018 11:25 AM 05/15/2018 11:32 AM x x x x x Not Reported Not Reported
05/16/2018 02:24 PM 56.48 45.68 24.80 65.12 36.50 29.0 Not Reported 6.93 SE 6.26 SW 18.57 S No x No Precipitation 05/15/2018 11:25 AM 05/15/2018 11:32 AM x x x x x Not Reported Not Reported
05/16/2018 02:38 PM 54.50 44.42 25.88 65.12 36.50 32.0 Not Reported 3.80 SW 2.24 N 13.65 SW No x No Precipitation 05/15/2018 11:25 AM 05/15/2018 11:32 AM x x x x x Not Reported Not Reported
05/16/2018 02:54 PM 50.72 42.26 28.58 65.12 36.50 42.0 Not Reported 4.47 NW 5.59 NW 11.63 N Yes x Unknown 05/16/2018 02:45 PM   x x x x x Not Reported Not Reported
05/16/2018 03:08 PM 46.76 40.28 29.84 65.12 36.50 51.0 Not Reported 5.14 NW 2.68 N 10.96 W Yes x Unknown 05/16/2018 02:45 PM   x x x x x Not Reported Not Reported
05/16/2018 03:23 PM 47.48 41.90 33.98 65.12 36.50 59.0 Not Reported 4.03 NW 5.14 NW 7.16 NW Yes x Unknown 05/16/2018 02:45 PM   x x x x x Not Reported Not Reported
05/16/2018 03:38 PM 47.84 42.44 35.42 65.12 36.50 61.0 Not Reported 5.37 NW 3.80 NW 10.29 NW Yes x Unknown 05/16/2018 02:45 PM   x x x x x Not Reported Not Reported
05/16/2018 03:53 PM 48.20 43.16 36.68 65.12 36.50 64.0 Not Reported 3.80 W 1.34 W 9.62 SW Yes x Unknown 05/16/2018 02:45 PM   x x x x x Not Reported Not Reported
05/16/2018 04:08 PM 48.56 43.52 37.22 65.12 36.50 64.0 Not Reported 2.91 SW 5.82 SW 7.61 W Yes x Unknown 05/16/2018 02:45 PM   x x x x x Not Reported Not Reported
05/16/2018 04:23 PM 48.92 43.52 36.68 65.12 36.50 62.0 Not Reported 1.34 W 0.22 W 7.83 NW Yes x Unknown 05/16/2018 02:45 PM   x x x x x Not Reported Not Reported
05/16/2018 04:38 PM 48.92 43.34 36.32 65.12 36.50 61.0 Not Reported 2.24 SW 7.61 SW 6.26 W No x No Precipitation 05/16/2018 04:38 PM 05/16/2018 04:39 PM x x x x x Not Reported Not Reported
05/16/2018 04:54 PM 49.10 43.34 36.14 65.12 36.50 60.0 Not Reported 3.58 S 6.26 SW 8.05 SW Yes x Unknown 05/16/2018 04:48 PM   x x x x x Not Reported Not Reported
05/16/2018 05:08 PM 48.92 43.34 36.14 65.12 36.50 61.0 Not Reported 2.01 SW 1.79 W 8.05 W Yes x Unknown 05/16/2018 04:48 PM   x x x x x Not Reported Not Reported
05/16/2018 05:23 PM 48.92 43.16 36.14 65.12 36.50 61.0 Not Reported 3.80 SW 6.26 SW 9.40 W Yes x Unknown 05/16/2018 04:48 PM   x x x x x Not Reported Not Reported
05/16/2018 05:38 PM 49.10 43.52 36.50 65.12 36.50 61.0 Not Reported 3.36 SW 3.80 W 10.74 SW Yes x Unknown 05/16/2018 04:48 PM   x x x x x Not Reported Not Reported
05/16/2018 05:53 PM 49.46 43.70 36.68 65.12 36.50 61.0 Not Reported 3.80 S 3.36 SW 13.20 SW Yes x Unknown 05/16/2018 04:48 PM   x x x x x Not Reported Not Reported
05/16/2018 06:09 PM 49.46 43.70 36.32 65.12 36.50 60.0 Not Reported 2.46 SW 0.00 SE 8.72 SW Yes x No Precipitation 05/16/2018 06:12 PM   x x x x x Not Reported Not Reported
05/16/2018 06:23 PM 49.82 43.88 36.50 65.12 36.50 59.0 Not Reported 4.47 S 4.70 SW 9.17 SW No x No Precipitation 05/16/2018 06:12 PM 05/16/2018 06:13 PM x x x x x Not Reported Not Reported
05/16/2018 06:38 PM 49.46 43.70 35.78 65.12 36.50 59.0 Not Reported 4.70 S 5.59 S 10.96 SW No x No Precipitation 05/16/2018 06:12 PM 05/16/2018 06:13 PM x x x x x Not Reported Not Reported
05/16/2018 06:55 PM 49.10 43.34 35.78 65.12 36.50 59.0 Not Reported 5.82 SW 3.13 SW 10.29 SW No x No Precipitation 05/16/2018 06:12 PM 05/16/2018 06:13 PM x x x x x Not Reported Not Reported
05/16/2018 07:09 PM 48.92 43.16 35.42 65.12 36.50 59.0 Not Reported 1.79 S 0.00 W 6.04 S No x No Precipitation 05/16/2018 06:12 PM 05/16/2018 06:13 PM x x x x x Not Reported Not Reported
05/16/2018 07:23 PM 49.10 43.34 35.78 65.12 36.50 60.0 Not Reported 0.22 SW 0.67 SW 3.58 SW Yes x Unknown 05/16/2018 07:27 PM   x x x x x Not Reported Not Reported
05/16/2018 07:38 PM 48.74 43.16 36.14 65.12 36.50 61.0 Not Reported 2.46 SW 1.34 SW 5.14 SW Yes x Unknown 05/16/2018 07:27 PM   x x x x x Not Reported Not Reported
05/16/2018 07:53 PM 48.56 43.16 36.50 65.12 36.50 62.0 Not Reported 2.46 SW 2.24 SW 4.03 SW No x No Precipitation 05/16/2018 07:27 PM 05/16/2018 07:55 PM x x x x x Not Reported Not Reported
05/16/2018 08:08 PM 48.20 42.98 36.32 65.12 36.50 63.0 Not Reported 0.67 S 2.91 SW 6.71 SW Yes x Unknown 05/16/2018 08:12 PM   x x x x x Not Reported Not Reported
05/16/2018 08:23 PM 48.02 42.80 36.32 65.12 36.50 63.0 Not Reported 3.80 S 2.91 W 6.49 SW Yes x Unknown 05/16/2018 08:24 PM   x x x x x Not Reported Not Reported
05/16/2018 08:38 PM 47.66 42.44 35.78 65.12 36.50 63.0 Not Reported 4.03 S 3.13 W 7.16 SW Yes x Unknown 05/16/2018 08:24 PM   x x x x x Not Reported Not Reported
05/16/2018 08:53 PM 47.48 42.26 35.60 65.12 36.50 63.0 Not Reported 4.03 SW 0.00 S 7.38 SW Yes x Unknown 05/16/2018 08:24 PM   x x x x x Not Reported Not Reported
05/16/2018 09:08 PM 47.48 42.08 35.42 65.12 36.50 62.0 Not Reported 4.25 W 4.25 W 9.40 W Yes x Unknown 05/16/2018 08:24 PM   x x x x x Not Reported Not Reported
05/16/2018 09:26 PM 47.48 42.26 35.60 65.12 36.50 63.0 Not Reported 1.57 SW 3.36 SW 6.49 W No x No Precipitation 05/16/2018 09:20 PM 05/16/2018 09:21 PM x x x x x Not Reported Not Reported
05/16/2018 09:38 PM 47.30 42.26 35.60 65.12 36.50 63.0 Not Reported 3.13 SW 0.45 E 9.17 SW No x No Precipitation 05/16/2018 09:20 PM 05/16/2018 09:21 PM x x x x x Not Reported Not Reported
05/16/2018 09:53 PM 47.30 42.26 35.78 65.12 36.50 63.0 Not Reported 2.01 SW 1.34 SW 5.14 SW No x No Precipitation 05/16/2018 09:20 PM 05/16/2018 09:21 PM x x x x x Not Reported Not Reported
05/16/2018 10:08 PM 47.30 42.26 35.78 65.12 36.50 64.0 Not Reported 3.13 W 1.57 SW 5.14 SW No x No Precipitation 05/16/2018 09:20 PM 05/16/2018 09:21 PM x x x x x Not Reported Not Reported
05/16/2018 10:23 PM 47.30 42.26 35.78 65.12 36.50 64.0 Not Reported 0.89 S 0.67 SW 3.80 W No x No Precipitation 05/16/2018 09:20 PM 05/16/2018 09:21 PM x x x x x Not Reported Not Reported
05/16/2018 10:38 PM 47.12 42.08 35.60 65.12 36.50 63.0 Not Reported 2.24 S 1.57 SW 6.49 SW No x No Precipitation 05/16/2018 09:20 PM 05/16/2018 09:21 PM x x x x x Not Reported Not Reported
05/16/2018 10:53 PM 46.94 42.08 35.60 65.12 36.50 64.0 Not Reported 1.57 S 2.24 SW 7.83 S No x No Precipitation 05/16/2018 09:20 PM 05/16/2018 09:21 PM x x x x x Not Reported Not Reported
05/16/2018 11:08 PM 46.58 41.72 35.42 65.12 36.50 65.0 Not Reported 1.57 SW 2.24 S 3.36 SW No x No Precipitation 05/16/2018 09:20 PM 05/16/2018 09:21 PM x x x x x Not Reported Not Reported
05/16/2018 11:23 PM 46.22 41.54 35.60 65.12 36.50 66.0 Not Reported 0.89 W 0.00 SW 3.36 SW No x No Precipitation 05/16/2018 09:20 PM 05/16/2018 09:21 PM x x x x x Not Reported Not Reported
05/16/2018 11:38 PM 46.58 41.90 36.14 65.12 36.50 66.0 Not Reported 1.79 W 0.45 S 5.59 SW No x No Precipitation 05/16/2018 09:20 PM 05/16/2018 09:21 PM x x x x x Not Reported Not Reported
05/16/2018 11:53 PM 46.40 41.72 35.96 65.12 36.50 66.0 Not Reported 0.67 S 0.00 SE 4.03 S No x No Precipitation 05/16/2018 09:20 PM 05/16/2018 09:21 PM x x x x x Not Reported Not Reported